sensor_id;sensor_type;location;lat;lon;timestamp;P1;durP1;ratioP1;P2;durP2;ratioP2
25409;SDS011;13339;50.840;4.346;2024-02-21T00:00:45;28.20;;;10.83;;
25409;SDS011;13339;50.840;4.346;2024-02-21T00:03:11;24.33;;;10.27;;
25409;SDS011;13339;50.840;4.346;2024-02-21T00:05:36;33.07;;;11.10;;
25409;SDS011;13339;50.840;4.346;2024-02-21T00:08:02;29.43;;;10.60;;
25409;SDS011;13339;50.840;4.346;2024-02-21T00:10:28;26.67;;;10.70;;
25409;SDS011;13339;50.840;4.346;2024-02-21T00:12:54;26.93;;;10.60;;
25409;SDS011;13339;50.840;4.346;2024-02-21T00:15:19;26.37;;;9.77;;
25409;SDS011;13339;50.840;4.346;2024-02-21T00:17:46;29.63;;;11.00;;
25409;SDS011;13339;50.840;4.346;2024-02-21T00:20:12;27.47;;;9.80;;
25409;SDS011;13339;50.840;4.346;2024-02-21T00:22:37;32.43;;;11.23;;
25409;SDS011;13339;50.840;4.346;2024-02-21T00:25:03;27.10;;;10.37;;
25409;SDS011;13339;50.840;4.346;2024-02-21T00:27:29;29.10;;;10.30;;
25409;SDS011;13339;50.840;4.346;2024-02-21T00:29:54;24.90;;;10.17;;
25409;SDS011;13339;50.840;4.346;2024-02-21T00:32:20;23.13;;;9.57;;
25409;SDS011;13339;50.840;4.346;2024-02-21T00:34:45;21.30;;;8.90;;
25409;SDS011;13339;50.840;4.346;2024-02-21T00:37:11;23.60;;;8.80;;
25409;SDS011;13339;50.840;4.346;2024-02-21T00:39:37;25.73;;;8.80;;
25409;SDS011;13339;50.840;4.346;2024-02-21T00:42:02;25.37;;;8.57;;
25409;SDS011;13339;50.840;4.346;2024-02-21T00:44:28;24.57;;;9.03;;
25409;SDS011;13339;50.840;4.346;2024-02-21T00:46:54;26.03;;;9.53;;
25409;SDS011;13339;50.840;4.346;2024-02-21T00:49:20;21.40;;;8.43;;
25409;SDS011;13339;50.840;4.346;2024-02-21T00:51:46;20.63;;;9.27;;
25409;SDS011;13339;50.840;4.346;2024-02-21T00:54:12;21.20;;;9.17;;
25409;SDS011;13339;50.840;4.346;2024-02-21T00:56:38;23.00;;;9.10;;
25409;SDS011;13339;50.840;4.346;2024-02-21T00:59:04;24.80;;;9.23;;
25409;SDS011;13339;50.840;4.346;2024-02-21T01:01:29;17.70;;;7.67;;
25409;SDS011;13339;50.840;4.346;2024-02-21T01:03:55;17.67;;;8.53;;
25409;SDS011;13339;50.840;4.346;2024-02-21T01:06:20;21.03;;;7.67;;
25409;SDS011;13339;50.840;4.346;2024-02-21T01:08:47;24.37;;;9.13;;
25409;SDS011;13339;50.840;4.346;2024-02-21T01:11:13;21.03;;;8.70;;
25409;SDS011;13339;50.840;4.346;2024-02-21T01:13:39;23.70;;;8.97;;
25409;SDS011;13339;50.840;4.346;2024-02-21T01:16:05;32.50;;;10.33;;
25409;SDS011;13339;50.840;4.346;2024-02-21T01:18:32;25.43;;;9.83;;
25409;SDS011;13339;50.840;4.346;2024-02-21T01:20:58;26.23;;;10.80;;
25409;SDS011;13339;50.840;4.346;2024-02-21T01:23:24;28.27;;;9.90;;
25409;SDS011;13339;50.840;4.346;2024-02-21T01:25:49;24.20;;;9.27;;
25409;SDS011;13339;50.840;4.346;2024-02-21T01:28:16;23.87;;;10.13;;
25409;SDS011;13339;50.840;4.346;2024-02-21T01:30:41;28.37;;;10.27;;
25409;SDS011;13339;50.840;4.346;2024-02-21T01:33:07;29.97;;;9.93;;
25409;SDS011;13339;50.840;4.346;2024-02-21T01:35:32;23.90;;;9.67;;
25409;SDS011;13339;50.840;4.346;2024-02-21T01:37:59;22.93;;;9.67;;
25409;SDS011;13339;50.840;4.346;2024-02-21T01:40:25;29.57;;;11.57;;
25409;SDS011;13339;50.840;4.346;2024-02-21T01:42:50;33.93;;;10.90;;
25409;SDS011;13339;50.840;4.346;2024-02-21T01:45:18;28.37;;;12.13;;
25409;SDS011;13339;50.840;4.346;2024-02-21T01:47:44;26.27;;;11.20;;
25409;SDS011;13339;50.840;4.346;2024-02-21T01:50:10;22.33;;;11.27;;
25409;SDS011;13339;50.840;4.346;2024-02-21T01:52:38;29.20;;;10.80;;
25409;SDS011;13339;50.840;4.346;2024-02-21T01:55:04;30.17;;;10.90;;
25409;SDS011;13339;50.840;4.346;2024-02-21T01:57:30;25.97;;;10.60;;
25409;SDS011;13339;50.840;4.346;2024-02-21T01:59:57;27.80;;;11.23;;
25409;SDS011;13339;50.840;4.346;2024-02-21T02:02:22;23.03;;;10.53;;
25409;SDS011;13339;50.840;4.346;2024-02-21T02:04:49;26.90;;;10.83;;
25409;SDS011;13339;50.840;4.346;2024-02-21T02:07:15;23.33;;;10.40;;
25409;SDS011;13339;50.840;4.346;2024-02-21T02:09:41;24.53;;;10.67;;
25409;SDS011;13339;50.840;4.346;2024-02-21T02:12:07;26.43;;;10.27;;
25409;SDS011;13339;50.840;4.346;2024-02-21T02:14:33;26.23;;;11.57;;
25409;SDS011;13339;50.840;4.346;2024-02-21T02:16:59;27.20;;;11.27;;
25409;SDS011;13339;50.840;4.346;2024-02-21T02:19:24;29.07;;;10.50;;
25409;SDS011;13339;50.840;4.346;2024-02-21T02:21:50;27.30;;;11.17;;
25409;SDS011;13339;50.840;4.346;2024-02-21T02:24:21;28.10;;;11.17;;
25409;SDS011;13339;50.840;4.346;2024-02-21T02:26:49;24.50;;;11.23;;
25409;SDS011;13339;50.840;4.346;2024-02-21T02:29:14;27.03;;;9.93;;
25409;SDS011;13339;50.840;4.346;2024-02-21T02:31:41;27.40;;;10.37;;
25409;SDS011;13339;50.840;4.346;2024-02-21T02:34:07;28.63;;;11.13;;
25409;SDS011;13339;50.840;4.346;2024-02-21T02:36:33;25.73;;;10.73;;
25409;SDS011;13339;50.840;4.346;2024-02-21T02:38:59;22.47;;;10.03;;
25409;SDS011;13339;50.840;4.346;2024-02-21T02:41:25;27.43;;;10.40;;
25409;SDS011;13339;50.840;4.346;2024-02-21T02:43:50;23.23;;;10.20;;
25409;SDS011;13339;50.840;4.346;2024-02-21T02:46:16;22.43;;;9.93;;
25409;SDS011;13339;50.840;4.346;2024-02-21T02:48:41;24.23;;;9.93;;
25409;SDS011;13339;50.840;4.346;2024-02-21T02:51:07;30.10;;;10.73;;
25409;SDS011;13339;50.840;4.346;2024-02-21T02:53:33;22.20;;;10.03;;
25409;SDS011;13339;50.840;4.346;2024-02-21T02:55:58;26.60;;;11.00;;
25409;SDS011;13339;50.840;4.346;2024-02-21T02:58:24;19.73;;;10.07;;
25409;SDS011;13339;50.840;4.346;2024-02-21T03:00:49;18.60;;;9.77;;
25409;SDS011;13339;50.840;4.346;2024-02-21T03:03:15;25.77;;;10.93;;
25409;SDS011;13339;50.840;4.346;2024-02-21T03:05:40;28.33;;;10.33;;
25409;SDS011;13339;50.840;4.346;2024-02-21T03:08:06;31.80;;;10.57;;
25409;SDS011;13339;50.840;4.346;2024-02-21T03:10:35;30.03;;;12.17;;
25409;SDS011;13339;50.840;4.346;2024-02-21T03:13:00;26.40;;;10.67;;
25409;SDS011;13339;50.840;4.346;2024-02-21T03:15:26;25.70;;;10.63;;
25409;SDS011;13339;50.840;4.346;2024-02-21T03:17:51;22.37;;;9.90;;
25409;SDS011;13339;50.840;4.346;2024-02-21T03:20:17;27.50;;;10.37;;
25409;SDS011;13339;50.840;4.346;2024-02-21T03:22:44;28.00;;;11.07;;
25409;SDS011;13339;50.840;4.346;2024-02-21T03:25:10;29.30;;;11.03;;
25409;SDS011;13339;50.840;4.346;2024-02-21T03:27:37;26.93;;;10.80;;
25409;SDS011;13339;50.840;4.346;2024-02-21T03:30:03;31.37;;;10.83;;
25409;SDS011;13339;50.840;4.346;2024-02-21T03:32:29;22.97;;;10.40;;
25409;SDS011;13339;50.840;4.346;2024-02-21T03:34:55;28.23;;;10.97;;
25409;SDS011;13339;50.840;4.346;2024-02-21T03:37:21;21.40;;;10.67;;
25409;SDS011;13339;50.840;4.346;2024-02-21T03:39:46;28.60;;;10.90;;
25409;SDS011;13339;50.840;4.346;2024-02-21T03:42:12;29.90;;;11.73;;
25409;SDS011;13339;50.840;4.346;2024-02-21T03:44:38;31.23;;;11.23;;
25409;SDS011;13339;50.840;4.346;2024-02-21T03:47:04;28.43;;;10.03;;
25409;SDS011;13339;50.840;4.346;2024-02-21T03:49:29;28.17;;;11.23;;
25409;SDS011;13339;50.840;4.346;2024-02-21T03:51:55;28.37;;;12.10;;
25409;SDS011;13339;50.840;4.346;2024-02-21T03:54:21;30.60;;;10.87;;
25409;SDS011;13339;50.840;4.346;2024-02-21T03:56:46;24.90;;;10.93;;
25409;SDS011;13339;50.840;4.346;2024-02-21T03:59:15;28.60;;;11.40;;
25409;SDS011;13339;50.840;4.346;2024-02-21T04:01:40;35.27;;;11.03;;
25409;SDS011;13339;50.840;4.346;2024-02-21T04:04:06;22.17;;;10.13;;
25409;SDS011;13339;50.840;4.346;2024-02-21T04:06:32;25.47;;;10.50;;
25409;SDS011;13339;50.840;4.346;2024-02-21T04:08:58;24.50;;;10.77;;
25409;SDS011;13339;50.840;4.346;2024-02-21T04:11:23;22.13;;;9.93;;
25409;SDS011;13339;50.840;4.346;2024-02-21T04:13:49;22.13;;;10.50;;
25409;SDS011;13339;50.840;4.346;2024-02-21T04:16:16;22.13;;;10.17;;
25409;SDS011;13339;50.840;4.346;2024-02-21T04:18:42;23.43;;;9.67;;
25409;SDS011;13339;50.840;4.346;2024-02-21T04:21:08;21.00;;;9.57;;
25409;SDS011;13339;50.840;4.346;2024-02-21T04:23:34;22.67;;;10.20;;
25409;SDS011;13339;50.840;4.346;2024-02-21T04:26:00;25.63;;;9.93;;
25409;SDS011;13339;50.840;4.346;2024-02-21T04:28:26;21.53;;;9.50;;
25409;SDS011;13339;50.840;4.346;2024-02-21T04:30:51;18.77;;;10.20;;
25409;SDS011;13339;50.840;4.346;2024-02-21T04:33:17;23.30;;;10.07;;
25409;SDS011;13339;50.840;4.346;2024-02-21T04:35:43;19.90;;;10.53;;
25409;SDS011;13339;50.840;4.346;2024-02-21T04:38:09;23.70;;;10.47;;
25409;SDS011;13339;50.840;4.346;2024-02-21T04:40:34;22.10;;;10.30;;
25409;SDS011;13339;50.840;4.346;2024-02-21T04:43:00;23.50;;;10.80;;
25409;SDS011;13339;50.840;4.346;2024-02-21T04:45:25;21.07;;;10.20;;
25409;SDS011;13339;50.840;4.346;2024-02-21T04:47:51;24.50;;;10.50;;
25409;SDS011;13339;50.840;4.346;2024-02-21T04:50:17;22.97;;;11.03;;
25409;SDS011;13339;50.840;4.346;2024-02-21T04:52:43;21.57;;;10.07;;
25409;SDS011;13339;50.840;4.346;2024-02-21T04:55:08;22.70;;;9.90;;
25409;SDS011;13339;50.840;4.346;2024-02-21T04:57:34;22.50;;;9.90;;
25409;SDS011;13339;50.840;4.346;2024-02-21T04:59:59;22.70;;;9.60;;
25409;SDS011;13339;50.840;4.346;2024-02-21T05:02:25;25.63;;;9.97;;
25409;SDS011;13339;50.840;4.346;2024-02-21T05:04:51;18.77;;;9.67;;
25409;SDS011;13339;50.840;4.346;2024-02-21T05:07:17;20.53;;;10.17;;
25409;SDS011;13339;50.840;4.346;2024-02-21T05:09:44;18.87;;;8.57;;
25409;SDS011;13339;50.840;4.346;2024-02-21T05:12:10;21.00;;;9.33;;
25409;SDS011;13339;50.840;4.346;2024-02-21T05:14:36;18.40;;;9.53;;
25409;SDS011;13339;50.840;4.346;2024-02-21T05:17:02;18.80;;;9.37;;
25409;SDS011;13339;50.840;4.346;2024-02-21T05:19:28;20.03;;;9.60;;
25409;SDS011;13339;50.840;4.346;2024-02-21T05:21:54;17.20;;;9.23;;
25409;SDS011;13339;50.840;4.346;2024-02-21T05:24:20;21.73;;;10.20;;
25409;SDS011;13339;50.840;4.346;2024-02-21T05:26:45;18.13;;;10.47;;
25409;SDS011;13339;50.840;4.346;2024-02-21T05:29:11;19.50;;;8.90;;
25409;SDS011;13339;50.840;4.346;2024-02-21T05:34:21;17.37;;;9.47;;
25409;SDS011;13339;50.840;4.346;2024-02-21T05:36:47;16.93;;;8.37;;
25409;SDS011;13339;50.840;4.346;2024-02-21T05:39:14;17.50;;;9.07;;
25409;SDS011;13339;50.840;4.346;2024-02-21T05:41:41;15.10;;;8.17;;
25409;SDS011;13339;50.840;4.346;2024-02-21T05:44:07;16.00;;;7.93;;
25409;SDS011;13339;50.840;4.346;2024-02-21T05:46:32;14.60;;;8.13;;
25409;SDS011;13339;50.840;4.346;2024-02-21T05:48:58;16.87;;;8.37;;
25409;SDS011;13339;50.840;4.346;2024-02-21T05:51:23;11.50;;;7.33;;
25409;SDS011;13339;50.840;4.346;2024-02-21T05:53:49;19.13;;;7.97;;
25409;SDS011;13339;50.840;4.346;2024-02-21T05:56:15;14.53;;;7.30;;
25409;SDS011;13339;50.840;4.346;2024-02-21T05:58:40;13.23;;;7.10;;
25409;SDS011;13339;50.840;4.346;2024-02-21T06:01:06;14.47;;;6.77;;
25409;SDS011;13339;50.840;4.346;2024-02-21T06:03:33;11.73;;;6.63;;
25409;SDS011;13339;50.840;4.346;2024-02-21T06:05:59;14.10;;;6.93;;
25409;SDS011;13339;50.840;4.346;2024-02-21T06:08:25;11.37;;;7.20;;
25409;SDS011;13339;50.840;4.346;2024-02-21T06:10:50;10.37;;;6.37;;
25409;SDS011;13339;50.840;4.346;2024-02-21T06:13:25;12.70;;;7.13;;
25409;SDS011;13339;50.840;4.346;2024-02-21T06:15:51;12.03;;;6.93;;
25409;SDS011;13339;50.840;4.346;2024-02-21T06:18:17;9.43;;;6.70;;
25409;SDS011;13339;50.840;4.346;2024-02-21T06:20:43;14.13;;;6.27;;
25409;SDS011;13339;50.840;4.346;2024-02-21T06:23:09;11.03;;;6.57;;
25409;SDS011;13339;50.840;4.346;2024-02-21T06:25:35;10.93;;;6.20;;
25409;SDS011;13339;50.840;4.346;2024-02-21T06:28:00;10.67;;;6.43;;
25409;SDS011;13339;50.840;4.346;2024-02-21T06:30:26;13.13;;;6.73;;
25409;SDS011;13339;50.840;4.346;2024-02-21T06:32:52;12.20;;;7.70;;
25409;SDS011;13339;50.840;4.346;2024-02-21T06:35:20;16.93;;;8.20;;
25409;SDS011;13339;50.840;4.346;2024-02-21T06:37:46;12.80;;;7.90;;
25409;SDS011;13339;50.840;4.346;2024-02-21T06:40:15;14.07;;;8.40;;
25409;SDS011;13339;50.840;4.346;2024-02-21T06:42:41;17.17;;;10.17;;
25409;SDS011;13339;50.840;4.346;2024-02-21T06:45:07;14.27;;;9.90;;
25409;SDS011;13339;50.840;4.346;2024-02-21T06:47:33;19.73;;;10.23;;
25409;SDS011;13339;50.840;4.346;2024-02-21T06:49:58;20.83;;;10.80;;
25409;SDS011;13339;50.840;4.346;2024-02-21T06:52:24;18.03;;;10.43;;
25409;SDS011;13339;50.840;4.346;2024-02-21T06:54:50;18.57;;;10.87;;
25409;SDS011;13339;50.840;4.346;2024-02-21T06:57:16;18.50;;;11.03;;
25409;SDS011;13339;50.840;4.346;2024-02-21T06:59:42;21.10;;;11.53;;
25409;SDS011;13339;50.840;4.346;2024-02-21T07:02:07;22.03;;;11.23;;
25409;SDS011;13339;50.840;4.346;2024-02-21T07:04:33;17.27;;;10.80;;
25409;SDS011;13339;50.840;4.346;2024-02-21T07:06:59;20.47;;;10.37;;
25409;SDS011;13339;50.840;4.346;2024-02-21T07:09:25;18.90;;;11.83;;
25409;SDS011;13339;50.840;4.346;2024-02-21T07:11:50;21.93;;;13.70;;
25409;SDS011;13339;50.840;4.346;2024-02-21T07:14:16;22.23;;;13.93;;
25409;SDS011;13339;50.840;4.346;2024-02-21T07:16:43;29.33;;;14.83;;
25409;SDS011;13339;50.840;4.346;2024-02-21T07:19:08;25.67;;;13.97;;
25409;SDS011;13339;50.840;4.346;2024-02-21T07:21:34;27.30;;;14.37;;
25409;SDS011;13339;50.840;4.346;2024-02-21T07:23:59;20.00;;;12.43;;
25409;SDS011;13339;50.840;4.346;2024-02-21T07:26:25;21.47;;;11.97;;
25409;SDS011;13339;50.840;4.346;2024-02-21T07:28:50;19.83;;;11.73;;
25409;SDS011;13339;50.840;4.346;2024-02-21T07:31:16;19.77;;;12.40;;
25409;SDS011;13339;50.840;4.346;2024-02-21T07:33:42;18.47;;;11.27;;
25409;SDS011;13339;50.840;4.346;2024-02-21T07:36:07;18.10;;;11.43;;
25409;SDS011;13339;50.840;4.346;2024-02-21T07:38:35;19.77;;;10.93;;
25409;SDS011;13339;50.840;4.346;2024-02-21T07:41:00;19.50;;;12.00;;
25409;SDS011;13339;50.840;4.346;2024-02-21T07:43:26;17.23;;;10.60;;
25409;SDS011;13339;50.840;4.346;2024-02-21T07:45:52;32.17;;;11.13;;
25409;SDS011;13339;50.840;4.346;2024-02-21T07:48:18;16.73;;;9.27;;
25409;SDS011;13339;50.840;4.346;2024-02-21T07:50:44;16.00;;;8.17;;
25409;SDS011;13339;50.840;4.346;2024-02-21T07:53:10;13.50;;;8.40;;
25409;SDS011;13339;50.840;4.346;2024-02-21T07:55:35;14.03;;;8.17;;
25409;SDS011;13339;50.840;4.346;2024-02-21T07:58:01;12.80;;;7.43;;
25409;SDS011;13339;50.840;4.346;2024-02-21T08:00:26;14.27;;;7.37;;
25409;SDS011;13339;50.840;4.346;2024-02-21T08:02:52;14.33;;;7.10;;
25409;SDS011;13339;50.840;4.346;2024-02-21T08:05:18;9.63;;;6.80;;
25409;SDS011;13339;50.840;4.346;2024-02-21T08:07:43;12.53;;;7.20;;
25409;SDS011;13339;50.840;4.346;2024-02-21T08:10:09;11.67;;;6.67;;
25409;SDS011;13339;50.840;4.346;2024-02-21T08:12:35;14.17;;;6.70;;
25409;SDS011;13339;50.840;4.346;2024-02-21T08:15:00;12.17;;;5.97;;
25409;SDS011;13339;50.840;4.346;2024-02-21T08:17:28;13.37;;;6.20;;
25409;SDS011;13339;50.840;4.346;2024-02-21T08:19:54;16.57;;;6.23;;
25409;SDS011;13339;50.840;4.346;2024-02-21T08:22:19;13.53;;;7.13;;
25409;SDS011;13339;50.840;4.346;2024-02-21T08:24:45;13.33;;;5.90;;
25409;SDS011;13339;50.840;4.346;2024-02-21T08:27:11;13.13;;;6.47;;
25409;SDS011;13339;50.840;4.346;2024-02-21T08:29:36;9.83;;;6.00;;
25409;SDS011;13339;50.840;4.346;2024-02-21T08:32:02;13.57;;;6.70;;
25409;SDS011;13339;50.840;4.346;2024-02-21T08:34:28;11.30;;;6.07;;
25409;SDS011;13339;50.840;4.346;2024-02-21T08:36:55;12.97;;;6.43;;
25409;SDS011;13339;50.840;4.346;2024-02-21T08:39:21;11.60;;;5.73;;
25409;SDS011;13339;50.840;4.346;2024-02-21T08:41:46;15.20;;;5.70;;
25409;SDS011;13339;50.840;4.346;2024-02-21T08:44:12;8.27;;;5.30;;
25409;SDS011;13339;50.840;4.346;2024-02-21T08:46:38;10.23;;;5.47;;
25409;SDS011;13339;50.840;4.346;2024-02-21T08:49:05;12.20;;;5.70;;
25409;SDS011;13339;50.840;4.346;2024-02-21T08:51:32;10.90;;;5.40;;
25409;SDS011;13339;50.840;4.346;2024-02-21T08:53:58;8.53;;;5.37;;
25409;SDS011;13339;50.840;4.346;2024-02-21T08:56:25;11.03;;;5.33;;
25409;SDS011;13339;50.840;4.346;2024-02-21T08:58:50;11.47;;;5.53;;
25409;SDS011;13339;50.840;4.346;2024-02-21T09:01:16;11.70;;;5.47;;
25409;SDS011;13339;50.840;4.346;2024-02-21T09:03:41;11.73;;;5.27;;
25409;SDS011;13339;50.840;4.346;2024-02-21T09:06:09;12.67;;;5.17;;
25409;SDS011;13339;50.840;4.346;2024-02-21T09:08:35;10.37;;;5.10;;
25409;SDS011;13339;50.840;4.346;2024-02-21T09:11:00;8.87;;;4.90;;
25409;SDS011;13339;50.840;4.346;2024-02-21T09:13:26;14.10;;;4.90;;
25409;SDS011;13339;50.840;4.346;2024-02-21T09:15:52;9.40;;;5.20;;
25409;SDS011;13339;50.840;4.346;2024-02-21T09:18:18;9.63;;;5.17;;
25409;SDS011;13339;50.840;4.346;2024-02-21T09:20:44;7.57;;;4.43;;
25409;SDS011;13339;50.840;4.346;2024-02-21T09:23:10;12.13;;;4.83;;
25409;SDS011;13339;50.840;4.346;2024-02-21T09:25:35;11.53;;;4.90;;
25409;SDS011;13339;50.840;4.346;2024-02-21T09:28:01;14.27;;;5.00;;
25409;SDS011;13339;50.840;4.346;2024-02-21T09:30:28;9.53;;;4.87;;
25409;SDS011;13339;50.840;4.346;2024-02-21T09:32:53;8.43;;;4.77;;
25409;SDS011;13339;50.840;4.346;2024-02-21T09:35:19;12.20;;;5.30;;
25409;SDS011;13339;50.840;4.346;2024-02-21T09:37:47;8.90;;;4.93;;
25409;SDS011;13339;50.840;4.346;2024-02-21T09:40:14;10.80;;;5.00;;
25409;SDS011;13339;50.840;4.346;2024-02-21T09:42:42;7.80;;;4.93;;
25409;SDS011;13339;50.840;4.346;2024-02-21T09:45:13;8.20;;;3.83;;
25409;SDS011;13339;50.840;4.346;2024-02-21T09:47:53;9.03;;;4.87;;
25409;SDS011;13339;50.840;4.346;2024-02-21T09:50:34;11.23;;;5.17;;
25409;SDS011;13339;50.840;4.346;2024-02-21T09:53:01;9.10;;;4.33;;
25409;SDS011;13339;50.840;4.346;2024-02-21T09:55:29;8.90;;;5.37;;
25409;SDS011;13339;50.840;4.346;2024-02-21T09:57:59;12.03;;;4.70;;
25409;SDS011;13339;50.840;4.346;2024-02-21T10:00:26;8.93;;;4.80;;
25409;SDS011;13339;50.840;4.346;2024-02-21T10:02:53;6.07;;;4.00;;
25409;SDS011;13339;50.840;4.346;2024-02-21T10:05:19;6.10;;;4.30;;
25409;SDS011;13339;50.840;4.346;2024-02-21T10:07:44;11.80;;;4.20;;
25409;SDS011;13339;50.840;4.346;2024-02-21T10:10:10;6.57;;;3.67;;
25409;SDS011;13339;50.840;4.346;2024-02-21T10:12:36;13.67;;;4.03;;
25409;SDS011;13339;50.840;4.346;2024-02-21T10:15:12;10.47;;;4.23;;
25409;SDS011;13339;50.840;4.346;2024-02-21T10:17:38;15.67;;;4.13;;
25409;SDS011;13339;50.840;4.346;2024-02-21T10:20:07;14.53;;;4.63;;
25409;SDS011;13339;50.840;4.346;2024-02-21T10:22:34;14.03;;;4.20;;
25409;SDS011;13339;50.840;4.346;2024-02-21T10:25:14;11.53;;;4.37;;
25409;SDS011;13339;50.840;4.346;2024-02-21T10:27:39;9.43;;;4.30;;
25409;SDS011;13339;50.840;4.346;2024-02-21T10:30:07;12.83;;;4.67;;
25409;SDS011;13339;50.840;4.346;2024-02-21T10:32:37;17.07;;;4.73;;
25409;SDS011;13339;50.840;4.346;2024-02-21T10:35:27;15.70;;;4.87;;
25409;SDS011;13339;50.840;4.346;2024-02-21T10:37:57;9.10;;;4.67;;
25409;SDS011;13339;50.840;4.346;2024-02-21T10:40:27;14.83;;;5.07;;
25409;SDS011;13339;50.840;4.346;2024-02-21T10:43:01;12.33;;;4.10;;
25409;SDS011;13339;50.840;4.346;2024-02-21T10:45:30;12.67;;;4.60;;
25409;SDS011;13339;50.840;4.346;2024-02-21T10:50:52;10.37;;;4.23;;
25409;SDS011;13339;50.840;4.346;2024-02-21T10:58:54;11.90;;;3.93;;
25409;SDS011;13339;50.840;4.346;2024-02-21T11:01:22;13.57;;;5.03;;
25409;SDS011;13339;50.840;4.346;2024-02-21T11:03:49;13.70;;;5.03;;
25409;SDS011;13339;50.840;4.346;2024-02-21T11:06:17;7.23;;;3.90;;
25409;SDS011;13339;50.840;4.346;2024-02-21T11:08:45;9.13;;;3.77;;
25409;SDS011;13339;50.840;4.346;2024-02-21T11:11:14;11.00;;;4.20;;
25409;SDS011;13339;50.840;4.346;2024-02-21T11:13:42;10.37;;;4.50;;
25409;SDS011;13339;50.840;4.346;2024-02-21T11:16:08;8.73;;;4.43;;
25409;SDS011;13339;50.840;4.346;2024-02-21T11:18:38;12.00;;;3.47;;
25409;SDS011;13339;50.840;4.346;2024-02-21T11:21:04;10.23;;;3.80;;
25409;SDS011;13339;50.840;4.346;2024-02-21T11:23:30;9.77;;;4.03;;
25409;SDS011;13339;50.840;4.346;2024-02-21T11:26:09;10.70;;;3.60;;
25409;SDS011;13339;50.840;4.346;2024-02-21T11:28:35;12.80;;;4.10;;
25409;SDS011;13339;50.840;4.346;2024-02-21T11:31:09;8.10;;;3.77;;
25409;SDS011;13339;50.840;4.346;2024-02-21T11:33:39;9.87;;;3.87;;
25409;SDS011;13339;50.840;4.346;2024-02-21T11:36:08;9.27;;;5.00;;
25409;SDS011;13339;50.840;4.346;2024-02-21T11:38:35;10.93;;;4.40;;
25409;SDS011;13339;50.840;4.346;2024-02-21T11:41:00;8.67;;;4.03;;
25409;SDS011;13339;50.840;4.346;2024-02-21T11:43:26;6.07;;;4.10;;
25409;SDS011;13339;50.840;4.346;2024-02-21T11:46:01;5.93;;;3.67;;
25409;SDS011;13339;50.840;4.346;2024-02-21T11:48:28;8.77;;;4.07;;
25409;SDS011;13339;50.840;4.346;2024-02-21T11:50:57;13.37;;;4.20;;
25409;SDS011;13339;50.840;4.346;2024-02-21T11:53:23;8.70;;;4.63;;
25409;SDS011;13339;50.840;4.346;2024-02-21T11:55:49;8.63;;;4.67;;
25409;SDS011;13339;50.840;4.346;2024-02-21T11:58:15;6.13;;;4.30;;
25409;SDS011;13339;50.840;4.346;2024-02-21T12:00:41;12.73;;;4.43;;
25409;SDS011;13339;50.840;4.346;2024-02-21T12:03:07;10.67;;;4.93;;
25409;SDS011;13339;50.840;4.346;2024-02-21T12:05:33;9.83;;;5.37;;
25409;SDS011;13339;50.840;4.346;2024-02-21T12:07:58;13.37;;;4.27;;
25409;SDS011;13339;50.840;4.346;2024-02-21T12:10:27;7.10;;;4.40;;
25409;SDS011;13339;50.840;4.346;2024-02-21T12:12:53;11.73;;;4.30;;
25409;SDS011;13339;50.840;4.346;2024-02-21T12:15:23;10.67;;;4.70;;
25409;SDS011;13339;50.840;4.346;2024-02-21T12:17:48;12.00;;;4.47;;
25409;SDS011;13339;50.840;4.346;2024-02-21T12:20:16;9.47;;;4.67;;
25409;SDS011;13339;50.840;4.346;2024-02-21T12:22:42;7.37;;;4.10;;
25409;SDS011;13339;50.840;4.346;2024-02-21T12:25:23;10.03;;;5.27;;
25409;SDS011;13339;50.840;4.346;2024-02-21T12:27:51;9.67;;;4.33;;
25409;SDS011;13339;50.840;4.346;2024-02-21T12:30:17;11.03;;;5.20;;
25409;SDS011;13339;50.840;4.346;2024-02-21T12:32:42;9.27;;;4.90;;
25409;SDS011;13339;50.840;4.346;2024-02-21T12:35:08;16.70;;;5.57;;
25409;SDS011;13339;50.840;4.346;2024-02-21T12:37:34;11.80;;;5.07;;
25409;SDS011;13339;50.840;4.346;2024-02-21T12:40:00;13.30;;;5.30;;
25409;SDS011;13339;50.840;4.346;2024-02-21T12:42:25;7.67;;;4.37;;
25409;SDS011;13339;50.840;4.346;2024-02-21T12:44:51;10.87;;;4.97;;
25409;SDS011;13339;50.840;4.346;2024-02-21T12:47:20;11.77;;;4.93;;
25409;SDS011;13339;50.840;4.346;2024-02-21T12:49:48;8.00;;;4.80;;
25409;SDS011;13339;50.840;4.346;2024-02-21T12:52:14;12.80;;;5.50;;
25409;SDS011;13339;50.840;4.346;2024-02-21T12:54:40;7.17;;;5.20;;
25409;SDS011;13339;50.840;4.346;2024-02-21T12:57:05;15.30;;;5.67;;
25409;SDS011;13339;50.840;4.346;2024-02-21T12:59:31;12.43;;;5.40;;
25409;SDS011;13339;50.840;4.346;2024-02-21T13:01:57;14.23;;;5.87;;
25409;SDS011;13339;50.840;4.346;2024-02-21T13:04:22;6.50;;;4.53;;
25409;SDS011;13339;50.840;4.346;2024-02-21T13:06:48;13.43;;;5.40;;
25409;SDS011;13339;50.840;4.346;2024-02-21T13:09:14;10.10;;;4.80;;
25409;SDS011;13339;50.840;4.346;2024-02-21T13:11:40;9.57;;;5.13;;
25409;SDS011;13339;50.840;4.346;2024-02-21T13:14:07;15.93;;;4.90;;
25409;SDS011;13339;50.840;4.346;2024-02-21T13:16:32;11.50;;;4.97;;
25409;SDS011;13339;50.840;4.346;2024-02-21T13:19:04;9.17;;;4.80;;
25409;SDS011;13339;50.840;4.346;2024-02-21T13:21:35;12.60;;;5.00;;
25409;SDS011;13339;50.840;4.346;2024-02-21T13:24:01;23.03;;;5.13;;
25409;SDS011;13339;50.840;4.346;2024-02-21T13:26:27;9.97;;;4.70;;
25409;SDS011;13339;50.840;4.346;2024-02-21T13:28:53;12.23;;;5.00;;
25409;SDS011;13339;50.840;4.346;2024-02-21T13:31:19;12.27;;;4.93;;
25409;SDS011;13339;50.840;4.346;2024-02-21T13:33:45;11.77;;;5.20;;
25409;SDS011;13339;50.840;4.346;2024-02-21T13:36:10;13.07;;;5.57;;
25409;SDS011;13339;50.840;4.346;2024-02-21T13:38:36;13.60;;;5.10;;
25409;SDS011;13339;50.840;4.346;2024-02-21T13:41:03;12.13;;;5.50;;
25409;SDS011;13339;50.840;4.346;2024-02-21T13:43:30;9.37;;;5.30;;
25409;SDS011;13339;50.840;4.346;2024-02-21T13:46:04;11.20;;;5.17;;
25409;SDS011;13339;50.840;4.346;2024-02-21T13:48:34;12.67;;;5.10;;
25409;SDS011;13339;50.840;4.346;2024-02-21T13:51:00;12.83;;;5.10;;
25409;SDS011;13339;50.840;4.346;2024-02-21T13:53:27;9.80;;;5.23;;
25409;SDS011;13339;50.840;4.346;2024-02-21T13:55:53;8.63;;;5.10;;
25409;SDS011;13339;50.840;4.346;2024-02-21T13:58:18;11.32;;;5.22;;
25409;SDS011;13339;50.840;4.346;2024-02-21T14:00:45;13.37;;;5.67;;
25409;SDS011;13339;50.840;4.346;2024-02-21T14:03:10;12.40;;;5.50;;
25409;SDS011;13339;50.840;4.346;2024-02-21T14:05:36;13.13;;;5.50;;
25409;SDS011;13339;50.840;4.346;2024-02-21T14:08:02;9.27;;;4.93;;
25409;SDS011;13339;50.840;4.346;2024-02-21T14:10:28;13.43;;;5.17;;
25409;SDS011;13339;50.840;4.346;2024-02-21T14:12:53;8.80;;;5.17;;
25409;SDS011;13339;50.840;4.346;2024-02-21T14:15:19;11.53;;;5.17;;
25409;SDS011;13339;50.840;4.346;2024-02-21T14:17:45;11.80;;;5.33;;
25409;SDS011;13339;50.840;4.346;2024-02-21T14:20:11;9.77;;;5.57;;
25409;SDS011;13339;50.840;4.346;2024-02-21T14:22:39;10.80;;;5.50;;
25409;SDS011;13339;50.840;4.346;2024-02-21T14:25:04;12.67;;;5.43;;
25409;SDS011;13339;50.840;4.346;2024-02-21T14:27:30;8.57;;;4.63;;
25409;SDS011;13339;50.840;4.346;2024-02-21T14:29:56;10.57;;;5.00;;
25409;SDS011;13339;50.840;4.346;2024-02-21T14:32:22;7.80;;;5.03;;
25409;SDS011;13339;50.840;4.346;2024-02-21T14:34:47;10.03;;;5.27;;
25409;SDS011;13339;50.840;4.346;2024-02-21T14:37:14;17.53;;;5.67;;
25409;SDS011;13339;50.840;4.346;2024-02-21T14:39:39;10.80;;;5.50;;